Time;durP1;ratioP1;P1;durP2;ratioP2;P2;SDS_P1;SDS_P2;PMS_P1;PMS_P2;Temp;Humidity;BMP_temperature;BMP_pressure;BME280_temperature;BME280_humidity;BME280_pressure;Samples;Min_cycle;Max_cycle;Signal;HPM_P1;HPM_P2
2021/09/01 00:01:52;;;;;;;28.77;19.55;;;13.30;99.90;;;;;;4937012;28;20669;-81
2021/09/01 00:04:19;;;;;;;32.60;19.95;;;13.40;99.90;;;;;;4986679;28;20046;-81
2021/09/01 00:06:46;;;;;;;31.95;21.20;;;13.50;99.90;;;;;;4936968;28;20057;-81
2021/09/01 00:09:13;;;;;;;33.38;20.23;;;13.60;99.90;;;;;;4954740;28;20035;-82
2021/09/01 00:11:41;;;;;;;32.60;19.27;;;13.50;99.90;;;;;;4968469;28;20039;-82
2021/09/01 00:14:08;;;;;;;39.95;21.88;;;13.60;99.90;;;;;;4961039;28;20046;-82
2021/09/01 00:16:35;;;;;;;28.90;19.67;;;13.70;99.90;;;;;;4954255;28;20049;-81
2021/09/01 00:19:06;;;;;;;28.35;19.83;;;13.70;99.90;;;;;;4943129;28;20034;-82
2021/09/01 00:21:33;;;;;;;30.45;19.40;;;13.80;99.90;;;;;;4940340;28;20127;-80
2021/09/01 00:24:00;;;;;;;32.58;19.83;;;13.80;99.90;;;;;;4936366;28;20129;-81
2021/09/01 00:26:28;;;;;;;29.52;18.90;;;13.90;99.90;;;;;;4953288;28;20070;-81
2021/09/01 00:28:55;;;;;;;29.80;18.20;;;13.90;99.90;;;;;;4954863;28;20050;-81
2021/09/01 00:31:22;;;;;;;34.45;19.52;;;13.90;99.90;;;;;;4954333;28;20051;-81
2021/09/01 00:33:50;;;;;;;30.23;18.15;;;13.80;99.90;;;;;;4938809;28;20038;-79
2021/09/01 00:36:17;;;;;;;29.80;17.25;;;13.70;99.90;;;;;;4950866;28;20126;-81
2021/09/01 00:38:46;;;;;;;34.03;17.60;;;13.70;99.90;;;;;;4943596;28;20081;-81
2021/09/01 00:41:31;;;;;;;28.48;18.95;;;13.70;99.90;;;;;;4968318;28;20658;-80
2021/09/01 00:44:15;;;;;;;31.73;18.55;;;13.80;99.90;;;;;;4951595;28;20046;-80
2021/09/01 00:46:42;;;;;;;32.53;18.10;;;13.90;99.90;;;;;;4934353;28;20065;-81
2021/09/01 00:49:10;;;;;;;30.60;19.35;;;13.90;99.90;;;;;;4950114;28;20039;-81
2021/09/01 00:51:38;;;;;;;34.55;21.48;;;13.90;99.90;;;;;;4943767;29;20105;-82
2021/09/01 00:54:05;;;;;;;33.75;20.50;;;14.00;99.90;;;;;;4935023;29;20040;-82
2021/09/01 00:56:32;;;;;;;40.25;24.02;;;14.00;99.90;;;;;;4964532;28;20051;-82
2021/09/01 00:58:59;;;;;;;44.75;24.33;;;14.10;99.90;;;;;;4950456;29;20054;-81
2021/09/01 01:01:26;;;;;;;40.90;22.77;;;14.10;99.90;;;;;;4937576;29;20065;-81
2021/09/01 01:03:55;;;;;;;46.92;22.30;;;14.00;99.90;;;;;;4934550;29;20051;-81
2021/09/01 01:06:29;;;;;;;38.80;23.70;;;14.10;99.90;;;;;;4949457;28;20521;-82
2021/09/01 01:08:56;;;;;;;42.00;21.90;;;14.10;99.90;;;;;;4936258;28;20043;-82
2021/09/01 01:11:24;;;;;;;32.95;20.67;;;14.00;99.90;;;;;;4967651;28;20073;-82
2021/09/01 01:13:52;;;;;;;41.17;21.88;;;14.00;99.90;;;;;;4968611;28;20579;-82
2021/09/01 01:16:23;;;;;;;35.83;21.83;;;14.00;99.90;;;;;;4935534;28;20050;-81
2021/09/01 01:18:51;;;;;;;46.88;23.35;;;14.10;99.90;;;;;;4952185;28;20047;-80
2021/09/01 01:21:21;;;;;;;41.83;23.45;;;14.20;99.90;;;;;;4959931;28;20046;-80
2021/09/01 01:23:56;;;;;;;43.03;24.70;;;14.20;99.90;;;;;;4948913;28;20057;-80
2021/09/01 01:26:23;;;;;;;40.70;21.83;;;14.20;99.90;;;;;;4966277;28;20070;-81
2021/09/01 01:29:11;;;;;;;43.47;22.77;;;14.20;99.90;;;;;;4935914;29;20229;-81
2021/09/01 01:31:40;;;;;;;54.42;23.98;;;14.10;99.90;;;;;;4916711;28;20054;-81
2021/09/01 01:34:14;;;;;;;44.22;24.05;;;14.20;99.90;;;;;;4957898;28;20061;-80
2021/09/01 01:36:41;;;;;;;45.22;23.85;;;14.10;99.90;;;;;;4953459;28;20059;-80
2021/09/01 01:39:07;;;;;;;42.33;21.90;;;14.00;99.90;;;;;;4941653;28;20043;-81
2021/09/01 01:41:34;;;;;;;43.47;23.58;;;14.10;99.90;;;;;;4954937;28;20049;-82
2021/09/01 01:44:01;;;;;;;46.22;22.77;;;14.10;99.90;;;;;;4962301;28;20054;-81
2021/09/01 01:46:28;;;;;;;43.25;24.08;;;14.00;99.90;;;;;;4959025;28;20046;-80
2021/09/01 01:48:55;;;;;;;50.85;23.83;;;13.90;99.90;;;;;;4959186;28;20649;-81
2021/09/01 01:51:22;;;;;;;46.72;25.05;;;13.90;99.90;;;;;;4946153;28;20053;-81
2021/09/01 01:53:48;;;;;;;49.30;25.33;;;13.90;99.90;;;;;;4936487;28;20058;-81
2021/09/01 01:56:17;;;;;;;43.28;24.17;;;13.90;99.90;;;;;;4933981;28;20098;-81
2021/09/01 01:58:44;;;;;;;48.65;24.30;;;13.90;99.90;;;;;;4970333;28;20047;-80
2021/09/01 02:01:11;;;;;;;47.85;26.80;;;13.80;99.90;;;;;;4949260;28;20134;-80
2021/09/01 02:03:37;;;;;;;57.17;25.77;;;13.90;99.90;;;;;;4954905;28;20043;-79
2021/09/01 02:06:04;;;;;;;59.05;28.52;;;13.90;99.90;;;;;;4939647;28;20049;-80
2021/09/01 02:08:31;;;;;;;56.55;27.02;;;13.80;99.90;;;;;;4952521;28;20077;-79
2021/09/01 02:10:58;;;;;;;48.22;26.95;;;13.90;99.90;;;;;;4957047;28;20126;-79
2021/09/01 02:13:25;;;;;;;52.90;26.70;;;13.90;99.90;;;;;;4955886;28;20079;-81
2021/09/01 02:15:52;;;;;;;52.10;25.38;;;13.90;99.90;;;;;;4957005;28;20047;-82
2021/09/01 02:18:19;;;;;;;60.80;27.70;;;13.90;99.90;;;;;;4957638;28;20047;-81
2021/09/01 02:20:46;;;;;;;52.78;25.98;;;13.90;99.90;;;;;;4940281;28;20061;-81
2021/09/01 02:23:13;;;;;;;53.15;25.20;;;13.90;99.90;;;;;;4941066;28;20815;-82
2021/09/01 02:25:40;;;;;;;51.15;26.95;;;14.10;99.90;;;;;;4956847;28;20062;-82
2021/09/01 02:28:07;;;;;;;52.03;26.95;;;14.10;99.90;;;;;;4954239;28;20254;-80
2021/09/01 02:30:34;;;;;;;55.85;27.75;;;14.00;99.90;;;;;;4938544;28;20561;-80
2021/09/01 02:33:01;;;;;;;61.35;27.90;;;14.00;99.90;;;;;;4940983;28;20117;-81
2021/09/01 02:35:28;;;;;;;54.00;26.30;;;14.00;99.90;;;;;;4937414;28;20047;-82
2021/09/01 02:37:55;;;;;;;59.03;26.75;;;14.00;99.90;;;;;;4956116;28;20114;-82
2021/09/01 02:40:22;;;;;;;57.95;28.08;;;14.20;99.90;;;;;;4934920;28;20094;-81
2021/09/01 02:42:49;;;;;;;56.78;28.48;;;14.20;99.90;;;;;;4935408;29;20053;-81
2021/09/01 02:45:17;;;;;;;55.90;28.20;;;14.20;99.90;;;;;;4920990;28;20137;-80
2021/09/01 02:47:46;;;;;;;59.83;28.35;;;14.20;99.90;;;;;;4947542;28;20117;-80
2021/09/01 02:50:13;;;;;;;56.53;27.88;;;14.20;99.90;;;;;;4946533;28;20074;-80
2021/09/01 02:52:44;;;;;;;59.55;28.65;;;14.20;99.90;;;;;;4938559;29;20059;-80
2021/09/01 02:55:11;;;;;;;62.10;30.42;;;14.10;99.90;;;;;;4921902;28;20055;-80
2021/09/01 02:57:38;;;;;;;64.45;30.88;;;14.00;99.90;;;;;;4954259;28;20040;-82
2021/09/01 03:00:07;;;;;;;64.57;31.23;;;14.00;99.90;;;;;;4941836;28;20070;-81
2021/09/01 03:02:34;;;;;;;65.28;30.08;;;13.90;99.90;;;;;;4973223;28;20058;-80
2021/09/01 03:05:03;;;;;;;62.95;29.40;;;13.90;99.90;;;;;;4965158;28;20050;-82
2021/09/01 03:07:30;;;;;;;67.80;29.95;;;13.80;99.90;;;;;;4962316;28;20047;-81
2021/09/01 03:09:57;;;;;;;69.15;31.70;;;13.80;99.90;;;;;;4955605;28;20070;-82
2021/09/01 03:12:24;;;;;;;63.38;29.48;;;13.80;99.90;;;;;;4956861;28;20070;-83
2021/09/01 03:14:51;;;;;;;83.85;31.95;;;13.70;99.90;;;;;;4975331;28;20083;-82
2021/09/01 03:17:18;;;;;;;82.60;33.08;;;13.70;99.90;;;;;;4941002;28;20070;-83
2021/09/01 03:19:45;;;;;;;62.58;29.77;;;13.70;99.90;;;;;;4956491;28;20054;-82
2021/09/01 03:22:11;;;;;;;66.78;30.40;;;13.60;99.90;;;;;;4941462;28;20138;-81
2021/09/01 03:24:38;;;;;;;65.75;28.35;;;13.60;99.90;;;;;;4957121;28;20047;-81
2021/09/01 03:27:05;;;;;;;70.97;31.42;;;13.50;99.90;;;;;;4959187;28;20051;-80
2021/09/01 03:29:32;;;;;;;65.75;29.63;;;13.40;99.90;;;;;;4943718;28;20058;-82
2021/09/01 03:31:59;;;;;;;72.20;31.55;;;13.30;99.90;;;;;;4938543;28;20748;-82
2021/09/01 03:34:26;;;;;;;83.45;32.88;;;13.20;99.90;;;;;;4964990;28;20042;-81
2021/09/01 03:36:53;;;;;;;76.30;33.25;;;13.20;99.90;;;;;;4956465;28;20694;-81
2021/09/01 03:39:19;;;;;;;79.70;32.00;;;13.00;99.90;;;;;;4952788;28;20046;-81
2021/09/01 03:41:46;;;;;;;85.72;33.15;;;13.00;99.90;;;;;;4951477;28;20043;-81
2021/09/01 03:44:13;;;;;;;104.90;36.30;;;13.00;99.90;;;;;;4956579;28;20049;-79
2021/09/01 03:46:40;;;;;;;116.03;36.40;;;12.90;99.90;;;;;;4941790;28;20082;-81
2021/09/01 03:49:07;;;;;;;129.88;37.53;;;12.90;99.90;;;;;;4940109;28;20051;-81
2021/09/01 03:51:33;;;;;;;103.25;37.13;;;12.90;99.90;;;;;;4961772;28;20055;-80
2021/09/01 03:54:00;;;;;;;107.82;37.15;;;12.80;99.90;;;;;;4967262;28;20146;-81
2021/09/01 03:56:27;;;;;;;101.85;34.97;;;12.80;99.90;;;;;;4962451;28;20146;-83
2021/09/01 03:58:54;;;;;;;108.40;36.38;;;12.70;99.90;;;;;;4938652;28;20046;-82
2021/09/01 04:01:23;;;;;;;85.78;32.55;;;12.60;99.90;;;;;;4959112;28;20849;-81
2021/09/01 04:03:51;;;;;;;85.50;32.15;;;12.60;99.90;;;;;;4956331;28;20073;-80
2021/09/01 04:06:17;;;;;;;77.63;32.05;;;12.50;99.90;;;;;;4938945;28;20110;-82
2021/09/01 04:08:45;;;;;;;81.95;32.15;;;12.50;99.90;;;;;;4936244;28;20053;-82
2021/09/01 04:11:12;;;;;;;82.68;31.38;;;12.40;99.90;;;;;;4953148;28;20620;-82
2021/09/01 04:13:39;;;;;;;82.75;31.85;;;12.30;99.90;;;;;;4971069;28;20061;-83
2021/09/01 04:16:05;;;;;;;84.45;31.08;;;12.30;99.90;;;;;;4936964;28;20054;-83
2021/09/01 04:18:32;;;;;;;74.38;29.17;;;12.40;99.90;;;;;;4939356;28;20097;-81
2021/09/01 04:20:59;;;;;;;79.45;30.52;;;12.40;99.90;;;;;;4960939;28;20691;-81
2021/09/01 04:23:26;;;;;;;79.60;30.90;;;12.30;99.90;;;;;;4952684;28;20047;-81
2021/09/01 04:25:53;;;;;;;85.03;33.70;;;12.40;99.90;;;;;;4937540;28;20627;-80
2021/09/01 04:28:20;;;;;;;81.65;30.23;;;12.40;99.90;;;;;;4955240;28;20081;-80
2021/09/01 04:30:46;;;;;;;74.45;30.50;;;12.40;99.90;;;;;;4950258;28;20047;-81
2021/09/01 04:33:13;;;;;;;73.82;32.50;;;12.30;99.90;;;;;;4957468;28;20459;-82
2021/09/01 04:35:40;;;;;;;73.28;28.35;;;12.30;99.90;;;;;;4935771;28;20039;-82
2021/09/01 04:38:07;;;;;;;84.70;31.02;;;12.20;99.90;;;;;;4953674;28;20686;-82
2021/09/01 04:40:35;;;;;;;71.20;28.48;;;12.10;99.90;;;;;;4932191;28;20043;-82
2021/09/01 04:43:02;;;;;;;73.15;29.95;;;12.20;99.90;;;;;;4954063;28;20046;-82
2021/09/01 04:45:29;;;;;;;67.90;30.90;;;12.20;99.90;;;;;;4937953;28;20049;-82
2021/09/01 04:47:56;;;;;;;79.60;30.23;;;12.20;99.90;;;;;;4938561;28;20053;-80
2021/09/01 04:50:23;;;;;;;79.72;29.17;;;12.30;99.90;;;;;;4959175;28;20077;-82
2021/09/01 04:52:49;;;;;;;83.75;31.55;;;12.20;99.90;;;;;;4935543;28;20042;-82
2021/09/01 04:55:17;;;;;;;74.93;29.00;;;12.30;99.90;;;;;;4952252;28;20073;-82
2021/09/01 04:57:45;;;;;;;65.53;27.40;;;12.00;99.90;;;;;;4955946;28;20077;-82
2021/09/01 05:00:12;;;;;;;76.53;29.17;;;12.00;99.90;;;;;;4956882;28;20081;-81
2021/09/01 05:02:39;;;;;;;75.95;29.55;;;12.00;99.90;;;;;;4935121;28;20050;-81
2021/09/01 05:05:08;;;;;;;72.47;29.73;;;12.00;99.90;;;;;;4967431;28;20071;-82
2021/09/01 05:07:35;;;;;;;71.13;29.52;;;12.20;99.90;;;;;;4963627;28;20051;-81
2021/09/01 05:10:03;;;;;;;73.65;29.83;;;12.10;99.90;;;;;;4935689;28;20149;-80
2021/09/01 05:12:30;;;;;;;82.28;28.95;;;12.10;99.90;;;;;;4935123;28;20468;-80
2021/09/01 05:14:57;;;;;;;58.05;27.05;;;12.20;99.90;;;;;;4952881;28;20050;-80
2021/09/01 05:17:24;;;;;;;57.35;26.35;;;12.30;99.90;;;;;;4933966;28;20078;-79
2021/09/01 05:19:51;;;;;;;63.67;28.15;;;12.40;99.90;;;;;;4952191;28;20085;-82
2021/09/01 05:22:20;;;;;;;64.10;27.48;;;12.40;99.90;;;;;;4952469;28;20129;-80
2021/09/01 05:25:03;;;;;;;57.17;26.10;;;12.40;99.90;;;;;;4953547;28;20053;-81
2021/09/01 05:27:32;;;;;;;59.65;27.00;;;12.60;99.90;;;;;;4955222;28;20046;-82
2021/09/01 05:30:01;;;;;;;62.15;27.23;;;12.70;99.90;;;;;;4955721;28;20090;-81
2021/09/01 05:32:30;;;;;;;62.50;25.08;;;12.80;99.90;;;;;;4928751;29;20105;-80
2021/09/01 05:35:00;;;;;;;53.20;26.33;;;12.90;99.90;;;;;;4929984;29;20085;-79
2021/09/01 05:37:28;;;;;;;60.83;26.70;;;12.80;99.90;;;;;;4954222;28;20492;-79
2021/09/01 05:39:57;;;;;;;52.75;25.48;;;12.80;99.90;;;;;;4941432;28;20573;-83
2021/09/01 05:42:26;;;;;;;56.42;25.80;;;12.80;99.90;;;;;;4952961;28;20077;-81
2021/09/01 05:44:55;;;;;;;49.20;25.13;;;12.80;99.90;;;;;;4968385;28;20511;-82
2021/09/01 05:47:23;;;;;;;44.75;23.30;;;12.90;99.90;;;;;;4971931;28;20050;-82
2021/09/01 05:49:52;;;;;;;51.75;24.08;;;13.10;99.90;;;;;;4960875;28;20113;-82
2021/09/01 05:52:19;;;;;;;52.80;25.10;;;13.20;99.90;;;;;;4949012;28;20050;-82
2021/09/01 05:54:52;;;;;;;49.30;23.27;;;13.20;99.90;;;;;;4957886;28;20483;-82
2021/09/01 05:57:39;;;;;;;46.05;22.77;;;13.10;99.90;;;;;;4955895;28;20114;-81
2021/09/01 06:00:09;;;;;;;43.38;23.40;;;13.30;99.90;;;;;;4959302;28;20058;-82
2021/09/01 06:02:41;;;;;;;46.13;25.08;;;13.40;99.90;;;;;;4955585;28;20043;-81
2021/09/01 06:05:10;;;;;;;46.60;24.77;;;13.60;99.90;;;;;;4945211;28;20112;-81
2021/09/01 06:07:47;;;;;;;49.55;25.10;;;13.60;99.90;;;;;;4953963;28;20066;-83
2021/09/01 06:10:17;;;;;;;47.08;22.90;;;13.60;99.90;;;;;;4956256;28;20059;-81
2021/09/01 06:12:46;;;;;;;49.90;24.55;;;13.80;99.90;;;;;;4971999;28;20054;-81
2021/09/01 06:15:13;;;;;;;51.85;23.55;;;13.80;99.90;;;;;;4937767;28;20206;-82
2021/09/01 06:17:40;;;;;;;40.67;23.20;;;13.50;99.90;;;;;;4957662;28;20070;-82
2021/09/01 06:20:07;;;;;;;42.45;23.52;;;13.70;99.90;;;;;;4936828;28;20109;-82
2021/09/01 06:22:34;;;;;;;45.17;22.20;;;13.70;99.90;;;;;;4948114;28;20423;-80
2021/09/01 06:25:02;;;;;;;44.38;21.50;;;13.80;99.90;;;;;;4959319;28;20120;-82
2021/09/01 06:27:30;;;;;;;49.05;22.27;;;13.80;99.90;;;;;;4941650;28;20492;-80
2021/09/01 06:29:56;;;;;;;52.72;24.10;;;13.70;99.90;;;;;;4975267;28;20077;-81
2021/09/01 06:32:23;;;;;;;46.55;23.35;;;13.60;99.90;;;;;;4943905;28;20073;-81
2021/09/01 06:34:50;;;;;;;43.95;22.88;;;13.60;99.90;;;;;;4930058;29;20062;-81
2021/09/01 06:37:17;;;;;;;45.00;21.95;;;13.70;99.90;;;;;;4974949;28;20050;-81
2021/09/01 06:39:45;;;;;;;36.65;20.65;;;13.80;99.90;;;;;;4952999;28;20039;-81
2021/09/01 06:42:12;;;;;;;39.08;19.90;;;13.90;99.90;;;;;;4954290;28;20057;-81
2021/09/01 06:44:39;;;;;;;38.58;19.67;;;13.80;99.90;;;;;;4955602;28;20523;-80
2021/09/01 06:47:06;;;;;;;32.00;17.23;;;13.90;99.90;;;;;;4949596;28;20047;-81
2021/09/01 06:49:33;;;;;;;34.40;17.75;;;13.90;99.90;;;;;;4974038;28;20438;-81
2021/09/01 06:52:00;;;;;;;40.38;18.05;;;13.90;99.90;;;;;;4946582;28;20052;-80
2021/09/01 06:54:27;;;;;;;31.70;17.67;;;13.90;99.90;;;;;;4959811;28;20078;-79
2021/09/01 06:56:54;;;;;;;35.08;17.98;;;13.90;99.90;;;;;;4954921;28;20054;-82
2021/09/01 06:59:20;;;;;;;33.70;18.10;;;13.80;99.90;;;;;;4970317;28;20062;-82
2021/09/01 07:01:48;;;;;;;32.58;17.80;;;13.90;99.90;;;;;;4969571;28;20109;-80
2021/09/01 07:04:15;;;;;;;38.60;18.58;;;13.90;99.90;;;;;;4939436;28;20540;-80
2021/09/01 07:06:42;;;;;;;30.05;16.42;;;13.90;99.90;;;;;;4940456;28;20039;-79
2021/09/01 07:09:09;;;;;;;33.17;16.40;;;14.00;99.90;;;;;;4973421;28;20511;-81
2021/09/01 07:11:36;;;;;;;40.47;18.00;;;14.20;99.90;;;;;;4964824;28;20535;-81
2021/09/01 07:14:03;;;;;;;32.55;16.17;;;14.40;99.90;;;;;;4947282;28;20046;-82
2021/09/01 07:16:30;;;;;;;36.00;17.90;;;14.40;99.90;;;;;;4989105;28;20051;-80
2021/09/01 07:18:57;;;;;;;28.67;16.88;;;14.40;99.90;;;;;;4959007;28;20063;-82
2021/09/01 07:21:24;;;;;;;31.48;18.65;;;14.50;99.90;;;;;;4956017;28;20055;-83
2021/09/01 07:23:52;;;;;;;32.58;16.33;;;14.60;99.90;;;;;;4956346;28;20308;-82
2021/09/01 07:26:19;;;;;;;39.08;18.17;;;14.70;99.90;;;;;;4950020;28;20047;-83
2021/09/01 07:28:46;;;;;;;33.35;17.77;;;14.50;99.90;;;;;;4992481;28;20055;-81
2021/09/01 07:31:13;;;;;;;36.50;17.52;;;14.50;99.90;;;;;;4959559;28;20035;-82
2021/09/01 07:33:40;;;;;;;30.45;15.57;;;14.60;99.90;;;;;;4959700;28;20653;-82
2021/09/01 07:36:07;;;;;;;37.13;15.68;;;14.50;99.90;;;;;;4948858;28;20611;-83
2021/09/01 07:38:34;;;;;;;32.00;16.88;;;14.50;99.90;;;;;;4942403;28;20127;-83
2021/09/01 07:41:01;;;;;;;28.67;17.33;;;14.40;99.90;;;;;;4957611;28;20031;-83
2021/09/01 07:43:29;;;;;;;31.95;15.15;;;14.50;99.90;;;;;;4943110;28;20050;-83
2021/09/01 07:45:56;;;;;;;31.05;15.90;;;14.50;99.90;;;;;;4956015;28;20039;-82
2021/09/01 07:48:24;;;;;;;27.75;14.50;;;14.50;99.90;;;;;;4935040;28;20746;-82
2021/09/01 07:50:51;;;;;;;30.27;14.60;;;14.50;99.90;;;;;;4957529;28;20039;-82
2021/09/01 07:53:18;;;;;;;25.13;12.38;;;14.60;99.90;;;;;;4952755;28;20082;-82
2021/09/01 07:55:46;;;;;;;28.38;13.05;;;14.70;99.90;;;;;;4952549;28;20272;-82
2021/09/01 07:58:12;;;;;;;26.40;13.10;;;14.60;99.90;;;;;;4968240;28;20500;-81
2021/09/01 08:00:39;;;;;;;24.00;12.02;;;14.60;99.90;;;;;;4951420;28;20467;-81
2021/09/01 08:03:07;;;;;;;18.48;11.38;;;14.70;99.90;;;;;;4954516;28;20558;-81
2021/09/01 08:05:34;;;;;;;19.85;11.93;;;14.70;99.90;;;;;;4950374;28;20050;-81
2021/09/01 08:08:01;;;;;;;21.58;9.73;;;14.70;99.90;;;;;;4965697;28;20109;-81
2021/09/01 08:10:28;;;;;;;14.07;8.82;;;14.80;99.90;;;;;;4950325;28;20078;-81
2021/09/01 08:12:54;;;;;;;21.27;10.25;;;14.70;99.90;;;;;;4953193;29;20055;-83
2021/09/01 08:15:21;;;;;;;22.40;9.80;;;14.70;99.90;;;;;;4957070;28;20051;-81
2021/09/01 08:17:48;;;;;;;16.25;9.90;;;14.70;99.90;;;;;;4960657;28;20051;-81
2021/09/01 08:20:15;;;;;;;19.55;9.45;;;14.70;99.90;;;;;;4948119;28;20128;-82
2021/09/01 08:22:42;;;;;;;14.30;8.30;;;14.70;99.90;;;;;;4949782;28;20081;-81
2021/09/01 08:25:10;;;;;;;17.15;8.98;;;14.90;99.90;;;;;;4955365;28;20051;-81
2021/09/01 08:27:38;;;;;;;15.80;9.40;;;15.00;99.90;;;;;;4935695;29;20572;-82
2021/09/01 08:30:06;;;;;;;14.45;8.27;;;15.30;99.90;;;;;;4964817;28;20119;-82
2021/09/01 08:32:33;;;;;;;16.40;9.25;;;15.20;99.90;;;;;;4967986;28;20061;-82
2021/09/01 08:35:00;;;;;;;17.13;8.02;;;15.50;99.90;;;;;;4948517;29;20065;-83
2021/09/01 08:37:28;;;;;;;12.93;8.23;;;15.80;99.90;;;;;;4950743;28;20054;-82
2021/09/01 08:39:54;;;;;;;10.75;8.52;;;15.80;99.90;;;;;;4970520;28;20093;-83
2021/09/01 08:42:22;;;;;;;11.70;8.43;;;15.80;99.90;;;;;;4957753;28;20057;-81
2021/09/01 08:44:50;;;;;;;15.55;8.88;;;15.80;99.90;;;;;;4959785;28;20078;-82
2021/09/01 08:47:20;;;;;;;13.60;9.20;;;15.80;99.90;;;;;;4956142;28;20051;-81
2021/09/01 08:49:47;;;;;;;11.45;8.77;;;15.90;99.90;;;;;;4940039;28;20692;-80
2021/09/01 08:52:28;;;;;;;16.52;10.10;;;15.90;99.90;;;;;;5103648;27;20928;-74
2021/09/01 08:54:55;;;;;;;10.20;9.07;;;16.00;99.90;;;;;;5063183;28;20068;-74
2021/09/01 08:57:22;;;;;;;14.15;10.80;;;16.10;99.90;;;;;;5023613;28;20077;-75
2021/09/01 08:59:48;;;;;;;11.07;9.90;;;16.10;99.90;;;;;;5029268;28;20333;-74
2021/09/01 09:02:25;;;;;;;12.88;11.23;;;16.30;99.90;;;;;;5040713;28;20551;-75
2021/09/01 09:04:52;;;;;;;15.48;10.60;;;16.20;99.90;;;;;;5040500;28;20057;-75
2021/09/01 09:07:18;;;;;;;13.85;11.10;;;16.30;99.90;;;;;;5040073;28;20391;-75
2021/09/01 09:09:45;;;;;;;17.15;11.65;;;16.30;99.90;;;;;;5039535;28;20433;-74
2021/09/01 09:12:12;;;;;;;14.82;10.52;;;16.40;99.90;;;;;;5040169;28;20123;-75
2021/09/01 09:14:47;;;;;;;15.70;10.60;;;16.50;99.90;;;;;;5040425;28;20072;-75
2021/09/01 09:17:19;;;;;;;16.42;11.60;;;16.60;99.90;;;;;;5040076;28;20077;-75
2021/09/01 09:20:02;;;;;;;12.93;10.43;;;16.60;99.90;;;;;;5040427;28;20045;-75
2021/09/01 09:22:37;;;;;;;13.07;10.77;;;16.60;99.90;;;;;;5038607;28;20630;-75
2021/09/01 09:25:14;;;;;;;17.38;10.40;;;16.20;99.90;;;;;;5039906;28;20492;-74
2021/09/01 09:27:44;;;;;;;11.52;10.27;;;15.90;99.90;;;;;;5040079;28;20406;-74
2021/09/01 09:30:22;;;;;;;13.15;10.13;;;15.80;99.90;;;;;;5039887;28;20061;-75
2021/09/01 09:32:57;;;;;;;11.05;9.77;;;15.80;99.90;;;;;;5039776;28;20180;-75
2021/09/01 09:35:47;;;;;;;13.57;9.77;;;15.90;99.90;;;;;;5039932;28;20111;-75
2021/09/01 09:38:16;;;;;;;16.67;9.75;;;16.10;99.90;;;;;;5040431;28;20300;-75
2021/09/01 09:40:43;;;;;;;12.63;9.93;;;16.20;99.90;;;;;;5037642;28;20090;-75
2021/09/01 09:43:15;;;;;;;14.00;10.13;;;16.40;99.90;;;;;;5040070;28;20099;-75
2021/09/01 09:45:43;;;;;;;11.95;10.20;;;16.50;99.90;;;;;;5038088;28;20057;-75
2021/09/01 09:48:10;;;;;;;15.15;11.77;;;16.50;99.90;;;;;;5039838;28;20135;-75
2021/09/01 09:50:37;;;;;;;12.20;10.80;;;16.60;99.90;;;;;;5038403;28;20069;-75
2021/09/01 09:53:04;;;;;;;14.95;10.82;;;16.70;99.90;;;;;;5021010;28;20085;-75
2021/09/01 09:55:32;;;;;;;13.27;11.45;;;16.80;99.90;;;;;;5019801;28;20045;-75
2021/09/01 09:58:03;;;;;;;14.52;10.43;;;16.90;99.90;;;;;;5020267;28;20131;-75
2021/09/01 10:00:30;;;;;;;12.50;11.20;;;17.00;99.90;;;;;;5019793;28;20494;-75
2021/09/01 10:02:57;;;;;;;12.10;10.70;;;16.90;99.90;;;;;;5027666;28;20061;-75
2021/09/01 10:05:28;;;;;;;13.13;11.75;;;17.00;99.90;;;;;;5026587;28;20053;-75
2021/09/01 10:07:57;;;;;;;15.68;12.60;;;17.10;99.90;;;;;;5026770;28;20276;-75
2021/09/01 10:10:24;;;;;;;14.27;11.77;;;17.20;99.90;;;;;;5025707;28;20133;-75
2021/09/01 10:12:51;;;;;;;12.70;11.70;;;17.50;99.90;;;;;;5024200;28;20404;-75
2021/09/01 10:15:35;;;;;;;13.05;11.95;;;17.60;99.90;;;;;;5022804;28;20057;-75
2021/09/01 10:18:06;;;;;;;13.45;11.95;;;17.80;99.90;;;;;;5025834;28;20145;-75
2021/09/01 10:20:38;;;;;;;14.27;12.80;;;17.80;99.90;;;;;;5025075;28;20050;-75
2021/09/01 10:23:06;;;;;;;14.13;12.75;;;17.90;99.90;;;;;;5026369;28;20115;-74
2021/09/01 10:25:50;;;;;;;15.05;13.60;;;18.00;99.90;;;;;;5025468;28;20096;-73
2021/09/01 10:28:20;;;;;;;14.73;13.30;;;17.90;99.90;;;;;;5025820;28;20080;-76
2021/09/01 10:31:20;;;;;;;14.18;12.77;;;18.00;99.90;;;;;;5024188;28;20046;-75
2021/09/01 10:33:51;;;;;;;18.35;13.73;;;18.30;99.90;;;;;;4997574;28;20057;-75
2021/09/01 10:36:24;;;;;;;14.82;13.52;;;18.40;99.90;;;;;;5025878;28;20049;-75
2021/09/01 10:39:16;;;;;;;15.48;13.38;;;18.30;99.90;;;;;;5025771;28;20045;-75
2021/09/01 10:41:42;;;;;;;15.13;13.65;;;18.30;99.90;;;;;;5025355;28;20398;-76
2021/09/01 10:44:32;;;;;;;14.98;13.55;;;18.40;99.90;;;;;;5024715;28;20164;-75
2021/09/01 10:46:59;;;;;;;14.85;13.30;;;18.10;99.90;;;;;;5024984;28;20065;-75
2021/09/01 10:49:47;;;;;;;16.13;14.23;;;18.10;99.90;;;;;;5007817;28;20057;-76
2021/09/01 10:52:13;;;;;;;13.95;12.65;;;17.90;99.90;;;;;;5008598;28;20050;-76
2021/09/01 10:54:41;;;;;;;14.95;13.50;;;17.80;99.90;;;;;;5024569;28;20093;-76
2021/09/01 10:57:24;;;;;;;15.73;13.35;;;17.80;99.90;;;;;;5025088;28;20139;-76
2021/09/01 10:59:51;;;;;;;15.20;13.57;;;18.00;99.90;;;;;;5024976;28;20119;-75
2021/09/01 11:02:20;;;;;;;14.38;12.98;;;18.10;99.90;;;;;;5024928;28;20158;-75
2021/09/01 11:04:49;;;;;;;18.02;13.50;;;18.20;99.90;;;;;;5024462;28;20324;-75
2021/09/01 11:07:21;;;;;;;15.68;14.18;;;18.30;99.90;;;;;;5024667;28;20049;-75
2021/09/01 11:09:58;;;;;;;13.93;12.73;;;18.20;99.90;;;;;;5025641;28;20056;-75
2021/09/01 11:12:26;;;;;;;16.58;14.80;;;18.10;99.90;;;;;;5024380;28;20075;-75
2021/09/01 11:14:54;;;;;;;16.48;12.75;;;18.50;99.90;;;;;;5020403;28;20096;-77
2021/09/01 11:17:29;;;;;;;17.50;13.80;;;19.10;99.90;;;;;;5021397;28;20084;-77
2021/09/01 11:20:00;;;;;;;16.42;14.88;;;19.20;99.90;;;;;;5023945;28;20084;-77
2021/09/01 11:22:33;;;;;;;14.68;13.50;;;19.50;99.90;;;;;;5013298;28;20321;-77
2021/09/01 11:25:00;;;;;;;17.10;15.32;;;19.80;99.90;;;;;;5015307;28;20064;-77
2021/09/01 11:27:29;;;;;;;15.70;13.95;;;19.70;99.90;;;;;;5023319;28;20049;-76
2021/09/01 11:30:02;;;;;;;16.25;14.48;;;19.40;99.90;;;;;;5024548;28;20049;-76
2021/09/01 11:32:29;;;;;;;14.38;12.88;;;19.30;99.90;;;;;;5006573;28;20417;-76
2021/09/01 11:34:56;;;;;;;15.77;14.18;;;19.30;99.90;;;;;;5024633;28;20559;-79
2021/09/01 11:37:23;;;;;;;15.70;14.23;;;19.10;99.90;;;;;;5025909;28;20061;-77
2021/09/01 11:39:51;;;;;;;16.05;14.52;;;19.10;99.90;;;;;;5023573;28;20517;-75
2021/09/01 11:42:34;;;;;;;15.52;14.02;;;19.20;99.90;;;;;;5024984;28;20081;-75
2021/09/01 11:45:06;;;;;;;16.05;14.05;;;19.40;99.90;;;;;;5023047;28;20089;-75
2021/09/01 11:47:39;;;;;;;15.27;13.90;;;19.30;99.90;;;;;;5023317;28;20111;-74
2021/09/01 11:50:06;;;;;;;43.08;32.95;;;19.20;99.90;;;;;;5020197;28;20053;-76
2021/09/01 11:52:34;;;;;;;24.13;21.52;;;19.30;99.90;;;;;;5010654;28;20579;-75
2021/09/01 11:55:02;;;;;;;15.68;14.20;;;19.50;99.90;;;;;;5006804;28;20053;-74
2021/09/01 11:57:31;;;;;;;14.57;13.05;;;19.50;99.90;;;;;;5024525;28;20053;-74
2021/09/01 11:59:59;;;;;;;16.08;14.13;;;19.50;99.90;;;;;;5025012;28;20464;-74
2021/09/01 12:02:28;;;;;;;23.63;19.75;;;19.60;99.90;;;;;;5023973;28;20061;-75
2021/09/01 12:04:56;;;;;;;18.15;14.65;;;19.70;99.90;;;;;;5023514;28;20068;-74
2021/09/01 12:07:25;;;;;;;16.65;12.60;;;19.60;99.90;;;;;;5021834;28;20084;-75
2021/09/01 12:10:02;;;;;;;13.77;12.50;;;19.50;99.90;;;;;;5023354;28;20555;-75
2021/09/01 12:12:39;;;;;;;14.07;12.55;;;19.20;99.90;;;;;;5023615;28;20237;-75
2021/09/01 12:15:11;;;;;;;14.25;12.80;;;19.00;99.90;;;;;;5022178;28;20081;-75
2021/09/01 12:17:39;;;;;;;16.17;12.85;;;19.10;99.90;;;;;;5022232;28;20052;-75
2021/09/01 12:20:11;;;;;;;14.85;13.32;;;19.00;99.90;;;;;;5023584;28;20154;-75
2021/09/01 12:22:43;;;;;;;15.38;13.45;;;18.90;99.90;;;;;;5023583;28;20417;-75
2021/09/01 12:25:15;;;;;;;16.70;15.10;;;18.90;99.90;;;;;;5005012;28;20057;-75
2021/09/01 12:28:04;;;;;;;14.68;13.30;;;19.00;99.90;;;;;;5024268;28;20394;-74
2021/09/01 12:30:32;;;;;;;14.80;13.48;;;19.10;99.90;;;;;;5022753;28;20049;-75
2021/09/01 12:33:01;;;;;;;14.55;13.25;;;19.30;99.90;;;;;;5022193;28;20556;-74
2021/09/01 12:35:31;;;;;;;16.38;14.80;;;19.20;99.90;;;;;;5024048;28;20120;-75
2021/09/01 12:38:00;;;;;;;15.00;13.50;;;19.30;99.90;;;;;;5023547;28;20053;-75